Time;durP1;ratioP1;P1;durP2;ratioP2;P2;SDS_P1;SDS_P2;PMS_P1;PMS_P2;Temp;Humidity;BMP_temperature;BMP_pressure;BME280_temperature;BME280_humidity;BME280_pressure;Samples;Min_cycle;Max_cycle;Signal;HPM_P1;HPM_P2
2022/08/01 00:00:35;;;;;;;12.90;11.60;;;19.70;99.90;;;;;;5097724;28;20829;-42
2022/08/01 00:03:01;;;;;;;13.20;11.70;;;19.60;99.90;;;;;;5100735;28;20414;-45
2022/08/01 00:05:26;;;;;;;12.13;10.80;;;19.60;99.90;;;;;;5091983;28;20882;-43
2022/08/01 00:07:52;;;;;;;11.77;10.67;;;19.60;99.90;;;;;;5091495;28;20299;-44
2022/08/01 00:10:18;;;;;;;11.20;10.30;;;19.60;99.90;;;;;;5092112;28;20176;-44
2022/08/01 00:12:45;;;;;;;10.90;10.00;;;19.50;99.90;;;;;;5092283;28;20864;-43
2022/08/01 00:15:14;;;;;;;11.93;10.80;;;19.50;99.90;;;;;;5091918;28;20762;-43
2022/08/01 00:17:40;;;;;;;11.83;10.60;;;19.50;99.90;;;;;;5091312;28;20779;-43
2022/08/01 00:20:08;;;;;;;11.97;10.77;;;19.50;99.90;;;;;;5090213;28;20448;-45
2022/08/01 00:22:34;;;;;;;11.70;10.70;;;19.50;99.90;;;;;;5092233;28;20468;-44
2022/08/01 00:25:00;;;;;;;11.40;10.40;;;19.40;99.90;;;;;;5091826;28;20419;-42
2022/08/01 00:27:26;;;;;;;11.97;10.73;;;19.50;99.90;;;;;;5091104;28;20806;-45
2022/08/01 00:29:52;;;;;;;11.83;10.63;;;19.50;99.90;;;;;;5091949;28;20786;-46
2022/08/01 00:32:18;;;;;;;12.10;10.90;;;19.50;99.90;;;;;;5091627;28;20407;-43
2022/08/01 00:34:44;;;;;;;14.73;13.17;;;19.60;99.90;;;;;;5091666;28;20200;-44
2022/08/01 00:37:10;;;;;;;13.50;12.10;;;19.60;99.90;;;;;;5090903;28;20453;-48
2022/08/01 00:39:35;;;;;;;15.43;13.80;;;19.50;99.90;;;;;;5091782;28;20199;-42
2022/08/01 00:42:09;;;;;;;14.23;12.83;;;19.50;99.90;;;;;;5091661;28;20192;-42
2022/08/01 00:44:35;;;;;;;16.67;14.97;;;19.50;99.90;;;;;;5091627;28;20651;-44
2022/08/01 00:47:01;;;;;;;16.20;14.53;;;19.50;99.90;;;;;;5090650;28;20442;-43
2022/08/01 00:49:27;;;;;;;18.17;16.27;;;19.50;99.90;;;;;;5091312;28;20418;-44
2022/08/01 00:51:53;;;;;;;17.00;15.30;;;19.50;99.90;;;;;;5090074;28;20184;-45
2022/08/01 00:54:19;;;;;;;17.60;16.00;;;19.50;99.90;;;;;;5091402;28;20429;-43
2022/08/01 00:56:44;;;;;;;20.03;17.40;;;19.60;99.90;;;;;;5089432;28;20238;-44
2022/08/01 00:59:12;;;;;;;20.20;17.53;;;19.50;99.90;;;;;;5091185;28;20195;-44
2022/08/01 01:01:38;;;;;;;18.73;16.90;;;19.60;99.90;;;;;;5091197;28;20427;-45
2022/08/01 01:04:03;;;;;;;18.17;16.27;;;19.60;99.90;;;;;;5090858;28;20757;-43
2022/08/01 01:07:06;;;;;;;20.63;18.60;;;19.50;99.90;;;;;;5081480;28;20476;-45
2022/08/01 01:09:58;;;;;;;19.07;17.17;;;19.50;99.90;;;;;;5081939;28;20523;-43
2022/08/01 01:12:47;;;;;;;22.30;19.10;;;19.50;99.90;;;;;;5090602;28;21107;-43
2022/08/01 01:15:40;;;;;;;19.00;17.00;;;19.50;99.90;;;;;;5089593;28;21500;-43
2022/08/01 01:18:17;;;;;;;21.77;19.57;;;19.50;99.90;;;;;;5097165;28;20419;-44
2022/08/01 01:20:50;;;;;;;20.00;17.90;;;19.50;99.90;;;;;;5095340;28;20788;-42
2022/08/01 01:23:39;;;;;;;21.50;19.30;;;19.50;99.90;;;;;;5107127;28;20508;-43
2022/08/01 01:26:23;;;;;;;22.10;19.77;;;19.50;99.90;;;;;;5090677;28;20429;-44
2022/08/01 01:28:54;;;;;;;20.53;18.50;;;19.50;99.90;;;;;;5089261;28;20437;-45
2022/08/01 01:31:23;;;;;;;23.07;19.70;;;19.50;99.90;;;;;;5090608;28;20759;-44
2022/08/01 01:33:51;;;;;;;22.50;20.30;;;19.50;99.90;;;;;;5090731;28;20740;-43
2022/08/01 01:36:19;;;;;;;21.40;19.00;;;19.50;99.90;;;;;;5090446;28;20450;-44
2022/08/01 01:38:46;;;;;;;22.60;20.20;;;19.50;99.90;;;;;;5088806;28;20416;-44
2022/08/01 01:41:16;;;;;;;21.60;19.00;;;19.50;99.90;;;;;;5089002;28;20402;-45
2022/08/01 01:43:43;;;;;;;21.90;19.80;;;19.40;99.90;;;;;;5090416;28;20439;-44
2022/08/01 01:46:12;;;;;;;22.77;19.77;;;19.40;99.90;;;;;;5090226;28;20418;-45
2022/08/01 01:48:39;;;;;;;22.57;19.17;;;19.40;99.90;;;;;;5104345;28;20418;-45
2022/08/01 01:51:06;;;;;;;21.60;19.30;;;19.40;99.90;;;;;;5086894;28;20514;-44
2022/08/01 01:53:34;;;;;;;24.83;18.50;;;19.40;99.90;;;;;;5090478;28;20513;-43
2022/08/01 01:56:02;;;;;;;20.87;18.70;;;19.40;99.90;;;;;;5099860;28;20534;-44
2022/08/01 01:58:29;;;;;;;21.33;19.13;;;19.30;99.90;;;;;;5094675;28;20422;-43
2022/08/01 02:00:58;;;;;;;20.90;18.83;;;19.30;99.90;;;;;;5090175;28;20442;-42
2022/08/01 02:03:26;;;;;;;23.80;19.77;;;19.30;99.90;;;;;;5090295;28;20955;-43
2022/08/01 02:05:53;;;;;;;23.57;18.60;;;19.30;99.90;;;;;;5090055;28;20474;-44
2022/08/01 02:08:21;;;;;;;22.93;20.53;;;19.30;99.90;;;;;;5089277;28;20469;-46
2022/08/01 02:13:58;;;;;;;20.70;18.60;;;19.30;99.90;;;;;;5066920;28;20430;-44
2022/08/01 02:16:28;;;;;;;24.03;18.63;;;19.40;99.90;;;;;;5067078;28;20514;-42
2022/08/01 02:18:55;;;;;;;24.17;19.03;;;19.40;99.90;;;;;;5071924;28;20445;-42
2022/08/01 02:21:30;;;;;;;23.53;19.43;;;19.40;99.90;;;;;;5090110;28;20426;-45
2022/08/01 02:24:08;;;;;;;23.50;20.33;;;19.40;99.90;;;;;;5089822;28;20526;-43
2022/08/01 02:26:36;;;;;;;20.30;18.37;;;19.40;99.90;;;;;;5089339;28;20454;-46
2022/08/01 02:29:06;;;;;;;21.47;18.90;;;19.40;99.90;;;;;;5089718;28;20418;-43
2022/08/01 02:31:35;;;;;;;21.23;18.97;;;19.40;99.90;;;;;;5089768;28;20423;-44
2022/08/01 02:34:05;;;;;;;21.53;19.27;;;19.40;99.90;;;;;;5089850;28;20423;-43
2022/08/01 02:36:35;;;;;;;24.27;20.30;;;19.40;99.90;;;;;;5088210;28;20430;-44
2022/08/01 02:39:06;;;;;;;22.43;19.57;;;19.30;99.90;;;;;;5090647;28;20422;-43
2022/08/01 02:41:35;;;;;;;21.50;19.30;;;19.30;99.90;;;;;;5093942;28;20835;-43
2022/08/01 02:44:04;;;;;;;22.43;19.43;;;19.30;99.90;;;;;;5093607;28;20418;-44
2022/08/01 02:46:36;;;;;;;21.23;18.87;;;19.30;99.90;;;;;;5093663;28;21297;-43
2022/08/01 02:49:06;;;;;;;23.07;19.63;;;19.30;99.90;;;;;;5093417;28;20426;-45
2022/08/01 02:51:33;;;;;;;23.73;21.23;;;19.30;99.90;;;;;;5092505;28;20413;-43
2022/08/01 02:54:02;;;;;;;22.97;19.87;;;19.30;99.90;;;;;;5093619;28;21203;-43
2022/08/01 02:56:34;;;;;;;24.80;20.57;;;19.30;99.90;;;;;;5093490;28;20489;-46
2022/08/01 02:59:03;;;;;;;22.93;19.33;;;19.40;99.90;;;;;;5093612;28;20794;-44
2022/08/01 03:01:30;;;;;;;27.70;21.40;;;19.30;99.90;;;;;;5093534;28;20418;-43
2022/08/01 03:03:55;;;;;;;22.27;19.93;;;19.30;99.90;;;;;;5093465;28;20433;-47
2022/08/01 03:06:23;;;;;;;22.63;19.60;;;19.20;99.90;;;;;;5093140;28;20438;-44
2022/08/01 03:08:49;;;;;;;24.00;19.80;;;19.30;99.90;;;;;;5089276;28;20326;-44
2022/08/01 03:11:16;;;;;;;24.97;21.60;;;19.30;99.90;;;;;;5083239;28;20422;-43
2022/08/01 03:13:44;;;;;;;22.47;19.97;;;19.20;99.90;;;;;;5093311;28;20415;-44
2022/08/01 03:16:12;;;;;;;26.20;20.00;;;19.30;99.90;;;;;;5093270;28;20441;-45
2022/08/01 03:18:40;;;;;;;26.37;19.97;;;19.30;99.90;;;;;;5091387;28;20437;-43
2022/08/01 03:21:07;;;;;;;26.17;20.40;;;19.30;99.90;;;;;;5092838;28;20768;-43
2022/08/01 03:23:35;;;;;;;26.37;21.00;;;19.30;99.90;;;;;;5092879;28;20426;-44
2022/08/01 03:26:02;;;;;;;22.13;19.80;;;19.20;99.90;;;;;;5093056;28;20426;-44
2022/08/01 03:28:29;;;;;;;30.10;22.67;;;19.30;99.90;;;;;;5092230;28;20512;-44
2022/08/01 03:30:56;;;;;;;23.37;20.83;;;19.30;99.90;;;;;;5093130;28;20422;-43
2022/08/01 03:33:22;;;;;;;24.20;20.90;;;19.30;99.90;;;;;;5092644;28;20475;-43
2022/08/01 03:35:53;;;;;;;29.83;22.90;;;19.30;99.90;;;;;;5093004;28;20426;-45
2022/08/01 03:38:26;;;;;;;25.67;22.33;;;19.30;99.90;;;;;;5095002;28;20184;-44
2022/08/01 03:40:53;;;;;;;27.90;23.20;;;19.30;99.90;;;;;;5103699;28;20454;-43
2022/08/01 03:43:26;;;;;;;28.37;23.40;;;19.30;99.90;;;;;;5105246;28;20504;-43
2022/08/01 03:45:53;;;;;;;27.13;23.33;;;19.20;99.90;;;;;;5095933;28;20845;-46
2022/08/01 03:48:22;;;;;;;27.53;23.57;;;19.20;99.90;;;;;;5102937;28;20485;-47
2022/08/01 03:50:52;;;;;;;28.13;23.50;;;19.20;99.90;;;;;;5101712;28;20426;-44
2022/08/01 03:53:24;;;;;;;24.80;21.50;;;19.20;99.90;;;;;;5092537;28;20513;-46
2022/08/01 03:55:52;;;;;;;26.30;20.23;;;19.20;99.90;;;;;;5092560;28;20536;-43
2022/08/01 03:58:18;;;;;;;24.87;20.83;;;19.20;99.90;;;;;;5091828;28;20426;-43
2022/08/01 04:00:45;;;;;;;22.97;20.47;;;19.20;99.90;;;;;;5091682;28;20905;-45
2022/08/01 04:03:12;;;;;;;26.30;21.27;;;19.20;99.90;;;;;;5103979;28;20456;-44
2022/08/01 04:05:41;;;;;;;25.30;21.10;;;19.20;99.90;;;;;;5094756;28;20444;-43
2022/08/01 04:08:07;;;;;;;23.13;20.53;;;19.20;99.90;;;;;;5091715;28;20472;-45
2022/08/01 04:10:33;;;;;;;24.37;20.03;;;19.20;99.90;;;;;;5078587;28;20837;-45
2022/08/01 04:12:59;;;;;;;25.40;20.10;;;19.20;99.90;;;;;;5092564;28;20175;-45
2022/08/01 04:15:24;;;;;;;23.70;20.20;;;19.10;99.90;;;;;;5102585;28;20578;-45
2022/08/01 04:17:50;;;;;;;26.10;22.03;;;19.10;99.90;;;;;;5091394;28;21124;-45
2022/08/01 04:20:16;;;;;;;22.83;19.67;;;19.10;99.90;;;;;;5090365;28;20196;-44
2022/08/01 04:22:42;;;;;;;25.73;20.10;;;19.20;99.90;;;;;;5091848;28;20211;-46
2022/08/01 04:25:20;;;;;;;19.57;17.03;;;19.10;99.90;;;;;;5105438;28;20816;-44
2022/08/01 04:27:48;;;;;;;21.70;18.10;;;19.20;99.90;;;;;;5084363;28;20281;-43
2022/08/01 04:30:16;;;;;;;18.97;16.87;;;19.20;99.90;;;;;;5091592;28;20419;-46
2022/08/01 04:32:44;;;;;;;17.37;15.57;;;19.10;99.90;;;;;;5091921;28;20426;-44
2022/08/01 04:35:18;;;;;;;18.53;16.43;;;19.10;99.90;;;;;;5091749;28;20405;-43
2022/08/01 04:37:48;;;;;;;16.97;15.17;;;19.10;99.90;;;;;;5091037;28;20438;-42
2022/08/01 04:40:15;;;;;;;18.10;16.30;;;19.10;99.90;;;;;;5090815;28;20418;-43
2022/08/01 04:42:41;;;;;;;18.73;16.17;;;19.10;99.90;;;;;;5098622;28;20429;-43
2022/08/01 04:45:08;;;;;;;19.13;16.90;;;19.10;99.90;;;;;;5102125;28;20915;-43
2022/08/01 04:47:36;;;;;;;16.83;15.03;;;19.10;99.90;;;;;;5091774;28;21005;-45
2022/08/01 04:50:10;;;;;;;15.83;14.03;;;19.00;99.90;;;;;;5097545;28;20488;-43
2022/08/01 04:52:37;;;;;;;17.20;15.40;;;19.00;99.90;;;;;;5091133;28;20419;-43
2022/08/01 04:55:05;;;;;;;16.10;14.50;;;19.10;99.90;;;;;;5094071;28;20448;-48
2022/08/01 04:57:35;;;;;;;19.50;15.97;;;19.00;99.90;;;;;;5101426;28;20456;-46
2022/08/01 05:00:02;;;;;;;19.23;16.63;;;19.00;99.90;;;;;;5091313;28;20424;-46
2022/08/01 05:02:28;;;;;;;18.57;16.57;;;19.10;99.90;;;;;;5091196;28;20449;-42
2022/08/01 05:04:55;;;;;;;19.57;16.10;;;19.10;99.90;;;;;;5091064;28;20499;-45
2022/08/01 05:07:21;;;;;;;17.67;15.77;;;19.10;99.90;;;;;;5090266;28;20458;-42
2022/08/01 05:09:47;;;;;;;18.40;16.27;;;19.10;99.90;;;;;;5090992;28;20422;-45
2022/08/01 05:12:13;;;;;;;19.50;15.93;;;19.10;99.90;;;;;;5090999;28;20536;-46
2022/08/01 05:14:38;;;;;;;17.80;15.10;;;19.10;99.90;;;;;;5091020;28;20199;-43
2022/08/01 05:17:06;;;;;;;16.73;13.23;;;19.10;99.90;;;;;;5090220;28;20521;-44
2022/08/01 05:19:33;;;;;;;19.37;15.40;;;19.10;99.90;;;;;;5089495;28;20194;-43
2022/08/01 05:22:01;;;;;;;17.33;14.43;;;19.10;99.90;;;;;;5090816;28;20813;-43
2022/08/01 05:24:29;;;;;;;15.93;14.33;;;19.10;99.90;;;;;;5090249;28;20422;-42
2022/08/01 05:26:56;;;;;;;15.90;14.20;;;19.20;99.90;;;;;;5089462;28;20466;-45
2022/08/01 05:29:22;;;;;;;16.00;14.40;;;19.20;99.90;;;;;;5091459;28;21163;-45
2022/08/01 05:31:47;;;;;;;16.43;14.60;;;19.10;99.90;;;;;;5090584;28;20423;-43
2022/08/01 05:34:14;;;;;;;16.00;14.10;;;19.10;99.90;;;;;;5090584;28;20245;-42
2022/08/01 05:36:40;;;;;;;18.10;15.63;;;19.20;99.90;;;;;;5090098;28;20192;-45
2022/08/01 05:39:05;;;;;;;18.23;14.97;;;19.20;99.90;;;;;;5089420;28;20505;-44
2022/08/01 05:41:31;;;;;;;17.47;14.37;;;19.20;99.90;;;;;;5088950;28;20224;-42
2022/08/01 05:43:57;;;;;;;14.93;13.30;;;19.20;99.90;;;;;;5092880;28;20238;-43
2022/08/01 05:46:22;;;;;;;20.17;15.77;;;19.20;99.90;;;;;;5092981;28;20233;-43
2022/08/01 05:48:48;;;;;;;17.90;14.00;;;19.30;99.90;;;;;;5097221;28;20184;-43
2022/08/01 05:51:14;;;;;;;17.73;14.73;;;19.30;99.90;;;;;;5094262;28;20180;-44
2022/08/01 05:53:39;;;;;;;16.97;14.97;;;19.30;99.90;;;;;;5104039;28;20179;-43
2022/08/01 05:56:05;;;;;;;17.53;14.90;;;19.30;99.90;;;;;;5090216;28;20184;-44
2022/08/01 05:58:31;;;;;;;19.70;15.97;;;19.30;99.90;;;;;;5095857;28;20191;-47
2022/08/01 06:00:57;;;;;;;17.33;15.20;;;19.30;99.90;;;;;;5096396;28;20434;-42
2022/08/01 06:03:24;;;;;;;17.07;14.33;;;19.40;99.90;;;;;;5090273;28;20479;-45
2022/08/01 06:05:51;;;;;;;20.30;16.47;;;19.40;99.90;;;;;;5089886;28;20439;-44
2022/08/01 06:08:17;;;;;;;19.20;16.77;;;19.40;99.90;;;;;;5088708;28;20465;-44
2022/08/01 06:10:42;;;;;;;21.03;17.10;;;19.40;99.90;;;;;;5082851;28;20453;-45
2022/08/01 06:13:08;;;;;;;23.10;16.87;;;19.40;99.90;;;;;;5089850;28;20184;-42
2022/08/01 06:15:34;;;;;;;20.20;16.07;;;19.40;99.90;;;;;;5090364;28;20172;-43
2022/08/01 06:18:00;;;;;;;19.40;15.37;;;19.50;99.90;;;;;;5089393;28;20263;-45
2022/08/01 06:20:26;;;;;;;18.97;16.20;;;19.50;99.90;;;;;;5089087;28;20306;-45
2022/08/01 06:22:51;;;;;;;19.47;17.23;;;19.50;99.90;;;;;;5090116;28;20191;-46
2022/08/01 06:25:18;;;;;;;18.40;16.37;;;19.50;99.90;;;;;;5090062;28;20430;-44
2022/08/01 06:27:44;;;;;;;18.17;16.10;;;19.50;99.90;;;;;;5089170;28;20214;-48
2022/08/01 06:30:10;;;;;;;23.30;17.33;;;19.50;99.90;;;;;;5089452;28;20925;-43
2022/08/01 06:32:36;;;;;;;17.70;15.80;;;19.40;99.90;;;;;;5089334;28;20177;-43
2022/08/01 06:35:02;;;;;;;18.50;16.63;;;19.40;99.90;;;;;;5089295;28;20446;-43
2022/08/01 06:37:31;;;;;;;18.43;15.53;;;19.40;99.90;;;;;;5089081;28;20218;-45
2022/08/01 06:40:02;;;;;;;17.20;14.73;;;19.50;99.90;;;;;;5089641;28;20426;-47
2022/08/01 06:42:29;;;;;;;16.87;15.07;;;19.50;99.90;;;;;;5089818;28;20820;-45
2022/08/01 06:44:54;;;;;;;17.70;13.80;;;19.60;99.90;;;;;;5089589;28;20921;-45
2022/08/01 06:47:20;;;;;;;17.27;14.80;;;19.60;99.90;;;;;;5088808;28;20465;-43
2022/08/01 06:49:46;;;;;;;17.00;13.30;;;19.70;99.90;;;;;;5089401;28;20188;-45
2022/08/01 06:52:11;;;;;;;16.07;14.37;;;19.80;99.90;;;;;;5089662;28;20185;-43
2022/08/01 06:54:37;;;;;;;15.07;13.47;;;19.80;99.90;;;;;;5089756;28;20261;-48
2022/08/01 06:57:06;;;;;;;16.57;14.20;;;19.80;99.90;;;;;;5088320;28;20199;-45
2022/08/01 06:59:32;;;;;;;17.63;15.77;;;19.90;99.90;;;;;;5089552;28;20196;-45
2022/08/01 07:01:57;;;;;;;16.20;14.07;;;20.00;99.90;;;;;;5089777;28;20422;-45
2022/08/01 07:04:23;;;;;;;17.07;14.00;;;20.30;99.90;;;;;;5089332;28;20432;-43
2022/08/01 07:06:49;;;;;;;13.33;11.90;;;20.60;99.90;;;;;;5088748;28;20259;-43
2022/08/01 07:09:14;;;;;;;13.53;12.10;;;20.90;99.90;;;;;;5082702;28;20235;-43
2022/08/01 07:11:40;;;;;;;12.57;11.27;;;20.90;99.90;;;;;;5082814;28;20671;-43
2022/08/01 07:14:06;;;;;;;11.83;10.63;;;20.80;99.90;;;;;;5089711;28;20647;-43
2022/08/01 07:16:32;;;;;;;12.93;9.33;;;20.80;99.90;;;;;;5088941;28;20566;-47
2022/08/01 07:18:57;;;;;;;11.10;9.90;;;20.60;99.90;;;;;;5088312;28;20640;-47
2022/08/01 07:21:23;;;;;;;10.60;9.57;;;20.60;99.90;;;;;;5089614;28;20942;-43
2022/08/01 07:23:49;;;;;;;11.13;9.07;;;20.60;99.90;;;;;;5089334;28;20183;-43
2022/08/01 07:26:14;;;;;;;10.07;8.03;;;20.70;99.90;;;;;;5090660;28;20185;-45
2022/08/01 07:28:40;;;;;;;7.53;6.83;;;20.90;99.90;;;;;;5092372;28;20220;-46
2022/08/01 07:31:06;;;;;;;6.67;6.07;;;21.00;99.90;;;;;;5093065;28;20196;-46
2022/08/01 07:33:31;;;;;;;7.87;7.07;;;21.20;99.90;;;;;;5092629;28;20195;-43
2022/08/01 07:35:57;;;;;;;6.90;6.20;;;21.30;99.90;;;;;;5093307;28;20653;-43
2022/08/01 07:38:23;;;;;;;7.77;6.40;;;21.30;99.90;;;;;;5092130;28;20775;-43
2022/08/01 07:40:49;;;;;;;6.83;6.13;;;21.30;99.90;;;;;;5093002;28;20188;-44
2022/08/01 07:43:14;;;;;;;9.07;6.30;;;21.30;99.90;;;;;;5092666;28;20193;-43
2022/08/01 07:45:41;;;;;;;6.63;5.97;;;21.30;99.90;;;;;;5092757;28;20181;-46
2022/08/01 07:48:07;;;;;;;6.70;5.90;;;21.20;99.90;;;;;;5091079;28;20215;-45
2022/08/01 07:50:34;;;;;;;7.40;6.70;;;21.20;99.90;;;;;;5092380;28;20407;-43
2022/08/01 07:53:00;;;;;;;6.10;5.40;;;21.10;99.90;;;;;;5092457;28;20411;-44
2022/08/01 07:55:26;;;;;;;5.67;5.10;;;21.10;99.90;;;;;;5091194;28;20452;-44
2022/08/01 07:57:52;;;;;;;5.60;5.20;;;21.20;99.90;;;;;;5091689;28;20517;-43
2022/08/01 08:00:18;;;;;;;7.90;5.83;;;21.40;99.90;;;;;;5092543;28;20779;-43
2022/08/01 08:02:44;;;;;;;8.33;5.80;;;21.60;99.90;;;;;;5092157;28;20505;-43
2022/08/01 08:05:11;;;;;;;5.63;5.10;;;21.70;99.90;;;;;;5090902;28;20434;-43
2022/08/01 08:07:37;;;;;;;5.90;5.40;;;21.70;99.90;;;;;;5091512;28;20493;-46
2022/08/01 08:10:04;;;;;;;4.27;3.87;;;21.70;99.90;;;;;;5078780;28;20455;-43
2022/08/01 08:12:30;;;;;;;4.93;4.53;;;21.70;99.90;;;;;;5078877;28;20433;-45
2022/08/01 08:14:58;;;;;;;4.10;3.67;;;21.70;99.90;;;;;;5092148;28;20833;-47
2022/08/01 08:17:24;;;;;;;6.07;5.47;;;21.70;99.90;;;;;;5091350;28;20291;-45
2022/08/01 08:19:50;;;;;;;8.23;7.43;;;21.70;99.90;;;;;;5091062;28;20827;-43
2022/08/01 08:22:16;;;;;;;7.23;6.60;;;21.70;99.90;;;;;;5090930;28;20422;-43
2022/08/01 08:24:41;;;;;;;6.47;5.97;;;21.80;99.90;;;;;;5091961;28;20699;-42
2022/08/01 08:27:07;;;;;;;5.73;5.30;;;21.80;99.90;;;;;;5091263;28;20458;-45
2022/08/01 08:29:33;;;;;;;6.00;5.50;;;21.80;99.90;;;;;;5091876;28;20176;-45
2022/08/01 08:31:59;;;;;;;5.80;5.07;;;21.80;99.90;;;;;;5091579;28;20627;-44
2022/08/01 08:34:26;;;;;;;4.10;3.70;;;21.80;99.90;;;;;;5091805;28;20181;-47
2022/08/01 08:36:53;;;;;;;4.73;4.30;;;21.90;99.90;;;;;;5090737;28;21125;-46
2022/08/01 08:39:18;;;;;;;4.30;3.87;;;21.90;99.90;;;;;;5091789;28;20463;-44
2022/08/01 08:41:44;;;;;;;4.33;4.03;;;22.00;99.90;;;;;;5091593;28;20414;-46
2022/08/01 08:44:10;;;;;;;3.63;3.33;;;22.00;99.90;;;;;;5091634;28;20185;-46
2022/08/01 08:46:44;;;;;;;3.43;2.90;;;22.00;99.90;;;;;;5090745;28;20197;-43
2022/08/01 08:49:12;;;;;;;2.70;2.50;;;22.00;99.90;;;;;;5091540;28;20417;-43
2022/08/01 08:51:44;;;;;;;2.37;2.17;;;22.00;99.90;;;;;;5091473;28;20426;-46
2022/08/01 08:54:12;;;;;;;3.00;2.77;;;22.00;99.90;;;;;;5091491;28;20418;-43
2022/08/01 08:56:38;;;;;;;2.83;2.63;;;22.00;99.90;;;;;;5090753;28;20410;-43
2022/08/01 08:59:04;;;;;;;3.40;3.10;;;22.00;99.90;;;;;;5091039;28;20418;-44
2022/08/01 09:01:33;;;;;;;3.30;3.00;;;22.10;99.90;;;;;;5091318;28;20426;-44
2022/08/01 09:03:59;;;;;;;3.73;3.43;;;22.10;99.90;;;;;;5091212;28;20430;-43
2022/08/01 09:06:25;;;;;;;3.60;3.30;;;22.10;99.90;;;;;;5091004;28;20434;-45
2022/08/01 09:08:51;;;;;;;3.07;2.87;;;22.10;99.90;;;;;;5086876;28;20927;-43
2022/08/01 09:11:16;;;;;;;3.70;3.40;;;22.10;99.90;;;;;;5080955;28;20686;-45
2022/08/01 09:14:14;;;;;;;4.33;3.53;;;22.10;99.90;;;;;;5090705;28;20184;-44
2022/08/01 09:16:43;;;;;;;3.93;3.63;;;22.10;99.90;;;;;;5090480;28;20650;-47
2022/08/01 09:19:16;;;;;;;4.00;3.53;;;22.10;99.90;;;;;;5089951;28;20986;-43
2022/08/01 09:21:59;;;;;;;4.13;3.80;;;22.30;99.90;;;;;;5090755;28;20511;-44
2022/08/01 09:24:27;;;;;;;4.20;3.80;;;22.30;99.90;;;;;;5090820;28;20438;-43
2022/08/01 09:26:54;;;;;;;4.27;3.87;;;22.30;99.90;;;;;;5090170;28;20454;-43
2022/08/01 09:29:29;;;;;;;3.90;3.60;;;22.30;99.90;;;;;;5090676;28;20417;-43
2022/08/01 09:31:56;;;;;;;3.83;3.53;;;22.20;99.90;;;;;;5089369;28;20475;-43
2022/08/01 09:34:27;;;;;;;4.30;4.00;;;22.10;99.90;;;;;;5090446;28;20429;-44
2022/08/01 09:36:55;;;;;;;4.17;3.77;;;22.20;99.90;;;;;;5088589;28;20773;-42
2022/08/01 09:39:33;;;;;;;3.80;3.03;;;22.40;99.90;;;;;;5089280;28;20475;-43
2022/08/01 09:42:01;;;;;;;3.80;3.50;;;22.60;99.90;;;;;;5090806;28;20415;-46
2022/08/01 09:44:39;;;;;;;4.90;4.50;;;22.80;99.90;;;;;;5090340;28;20453;-43
2022/08/01 09:47:05;;;;;;;5.07;4.67;;;22.90;99.90;;;;;;5089977;28;20457;-45
2022/08/01 09:49:35;;;;;;;7.93;4.50;;;22.90;99.90;;;;;;5089757;28;20481;-43
2022/08/01 09:52:21;;;;;;;3.90;3.60;;;23.00;99.90;;;;;;5090374;28;20423;-45
2022/08/01 09:54:55;;;;;;;3.57;3.27;;;23.20;99.90;;;;;;5090438;28;20449;-43
2022/08/01 09:57:21;;;;;;;2.70;2.50;;;23.30;99.90;;;;;;5089847;28;20421;-43
2022/08/01 09:59:49;;;;;;;3.00;2.57;;;23.20;99.90;;;;;;5090312;28;20854;-46
2022/08/01 10:02:27;;;;;;;2.17;2.07;;;23.10;99.90;;;;;;5090293;28;20484;-42
2022/08/01 10:04:53;;;;;;;2.97;2.13;;;23.00;99.90;;;;;;5090101;28;20487;-43
2022/08/01 10:07:19;;;;;;;5.47;2.73;;;22.90;99.90;;;;;;5089438;28;20454;-44
2022/08/01 10:09:46;;;;;;;2.53;1.90;;;22.90;99.90;;;;;;5088316;28;21015;-44
2022/08/01 10:12:16;;;;;;;1.90;1.80;;;22.90;99.90;;;;;;5089819;28;20906;-43
2022/08/01 10:14:44;;;;;;;2.23;1.93;;;22.90;99.90;;;;;;5090251;28;20422;-45
2022/08/01 10:17:14;;;;;;;1.80;1.70;;;23.20;99.90;;;;;;5089329;28;20458;-43
2022/08/01 10:19:41;;;;;;;2.70;2.20;;;23.50;99.90;;;;;;5089259;28;20427;-48
2022/08/01 10:22:16;;;;;;;2.20;2.00;;;23.70;99.90;;;;;;5089652;28;20418;-43
2022/08/01 10:24:44;;;;;;;3.37;2.43;;;23.70;99.90;;;;;;5090062;28;20750;-44
2022/08/01 10:27:10;;;;;;;3.40;1.90;;;23.70;99.90;;;;;;5085565;28;20457;-43
2022/08/01 10:29:41;;;;;;;2.10;1.90;;;23.60;99.90;;;;;;5089987;28;20423;-44
2022/08/01 10:32:09;;;;;;;1.77;1.67;;;23.50;99.90;;;;;;5088443;28;20422;-44
2022/08/01 10:34:36;;;;;;;1.80;1.70;;;23.40;99.90;;;;;;5090030;28;20427;-44
2022/08/01 10:37:04;;;;;;;1.83;1.73;;;23.20;99.90;;;;;;5088993;28;20430;-43
2022/08/01 10:39:31;;;;;;;3.33;2.00;;;23.20;99.90;;;;;;5090118;28;20766;-46
2022/08/01 10:41:58;;;;;;;2.50;2.07;;;23.10;99.90;;;;;;5089524;28;20426;-43
2022/08/01 10:44:26;;;;;;;1.70;1.60;;;23.10;99.90;;;;;;5089742;28;20410;-43
2022/08/01 10:46:59;;;;;;;3.00;1.73;;;23.00;99.90;;;;;;5089112;28;20506;-43
2022/08/01 10:49:29;;;;;;;2.20;1.80;;;22.90;99.90;;;;;;5089456;28;20880;-49
2022/08/01 10:51:56;;;;;;;1.63;1.53;;;22.90;99.90;;;;;;5089784;28;20432;-45
2022/08/01 10:54:25;;;;;;;2.53;2.33;;;22.80;99.90;;;;;;5089419;28;21097;-43
2022/08/01 10:56:52;;;;;;;2.20;2.00;;;22.80;99.90;;;;;;5086036;28;20433;-44
2022/08/01 10:59:23;;;;;;;2.57;2.37;;;22.80;99.90;;;;;;5089389;28;20422;-45
2022/08/01 11:02:07;;;;;;;2.77;1.97;;;22.90;99.90;;;;;;5093333;28;20410;-43
2022/08/01 11:04:55;;;;;;;2.13;1.93;;;23.20;99.90;;;;;;5080245;28;20793;-42
2022/08/01 11:07:54;;;;;;;2.67;2.10;;;23.40;99.90;;;;;;5092764;28;20833;-45
2022/08/01 11:10:30;;;;;;;1.97;1.80;;;23.40;99.90;;;;;;5087278;28;20414;-45
2022/08/01 11:12:55;;;;;;;1.63;1.33;;;23.30;99.90;;;;;;5090781;28;20493;-44
2022/08/01 11:15:25;;;;;;;1.47;1.37;;;23.20;99.90;;;;;;5093177;28;20525;-44
2022/08/01 11:17:52;;;;;;;1.23;1.13;;;23.00;99.90;;;;;;5092794;28;20697;-46
2022/08/01 11:20:22;;;;;;;1.60;1.20;;;23.00;99.90;;;;;;5092301;28;20499;-44
2022/08/01 11:23:00;;;;;;;9.63;1.50;;;22.90;99.90;;;;;;5084699;28;20443;-47
2022/08/01 11:25:47;;;;;;;1.57;1.13;;;23.10;99.90;;;;;;5098379;28;20517;-47
2022/08/01 11:28:16;;;;;;;2.93;1.30;;;23.10;99.90;;;;;;5074073;28;20509;-42
2022/08/01 11:30:42;;;;;;;1.27;1.17;;;23.10;99.90;;;;;;5093465;28;20410;-42
2022/08/01 11:33:09;;;;;;;2.43;1.00;;;23.20;99.90;;;;;;5097525;28;20423;-43
2022/08/01 11:35:36;;;;;;;1.20;1.10;;;23.30;99.90;;;;;;5101636;28;20410;-43
2022/08/01 11:38:29;;;;;;;1.30;1.20;;;23.40;99.90;;;;;;5091659;28;20422;-42
2022/08/01 11:41:13;;;;;;;1.37;1.27;;;23.60;99.90;;;;;;5091892;28;20964;-43
2022/08/01 11:43:58;;;;;;;1.50;1.00;;;23.70;99.90;;;;;;5092469;28;20426;-43
2022/08/01 11:47:06;;;;;;;1.00;0.90;;;23.90;99.90;;;;;;5092720;28;20445;-43
2022/08/01 11:49:40;;;;;;;1.27;1.17;;;23.90;99.90;;;;;;5092710;28;20509;-45
2022/08/01 11:52:29;;;;;;;3.77;1.10;;;23.90;99.90;;;;;;5092157;28;20422;-46
2022/08/01 11:55:04;;;;;;;1.20;1.10;;;23.70;99.90;;;;;;5092813;28;20927;-45
2022/08/01 11:57:34;;;;;;;1.80;1.70;;;23.60;99.90;;;;;;5091742;28;20417;-44
2022/08/01 12:00:09;;;;;;;1.60;1.50;;;23.40;99.90;;;;;;5092549;28;20409;-42
2022/08/01 12:02:35;;;;;;;1.50;1.40;;;23.30;99.90;;;;;;5092679;28;20409;-44
2022/08/01 12:05:05;;;;;;;1.50;1.40;;;23.40;99.90;;;;;;5092410;28;20426;-46
2022/08/01 12:07:32;;;;;;;1.30;1.20;;;23.60;99.90;;;;;;5090361;28;20616;-44
2022/08/01 12:10:13;;;;;;;1.47;1.30;;;23.80;99.90;;;;;;5079303;28;20498;-45
2022/08/01 12:12:52;;;;;;;1.93;1.83;;;24.10;99.90;;;;;;5079207;28;20406;-43
2022/08/01 12:15:19;;;;;;;2.00;1.90;;;24.30;99.90;;;;;;5092109;28;20505;-44
2022/08/01 12:17:56;;;;;;;1.80;1.70;;;24.40;99.90;;;;;;5091781;28;20426;-43
2022/08/01 12:20:24;;;;;;;2.40;2.20;;;24.50;99.90;;;;;;5091135;28;20418;-44
2022/08/01 12:22:57;;;;;;;2.40;2.30;;;24.50;99.90;;;;;;5091982;28;20484;-45
2022/08/01 12:25:23;;;;;;;2.70;2.50;;;24.50;99.90;;;;;;5091666;28;21090;-46
2022/08/01 12:27:49;;;;;;;2.40;2.30;;;24.50;99.90;;;;;;5091279;28;20469;-43
2022/08/01 12:30:22;;;;;;;2.67;2.47;;;24.50;99.90;;;;;;5091287;28;20456;-45
2022/08/01 12:32:49;;;;;;;2.37;2.27;;;24.50;99.90;;;;;;5091525;28;20418;-45
2022/08/01 12:35:23;;;;;;;2.20;2.10;;;24.40;99.90;;;;;;5091376;28;20407;-43
2022/08/01 12:37:53;;;;;;;1.73;1.63;;;24.40;99.90;;;;;;5090753;28;20528;-43
2022/08/01 12:40:28;;;;;;;1.70;1.60;;;24.40;99.90;;;;;;5091437;28;20430;-44
2022/08/01 12:43:04;;;;;;;1.53;1.43;;;24.50;99.90;;;;;;5091729;28;20422;-43
2022/08/01 12:45:44;;;;;;;2.10;1.90;;;24.40;99.90;;;;;;5091404;28;20422;-46
2022/08/01 12:48:12;;;;;;;2.07;1.83;;;24.50;99.90;;;;;;5090713;28;20457;-45